Wetterdaten: Woche 28.11.16 - 04.12.16 (KW48)
Datum Zeit Temp. I. Temp. A. Feuchte I. Feuchte A. Luftdruck Regen Wind Richtung Sonnenschein UV Solar Taupunkt Windchill Windben
28.11.2016 00:00 24,0 C -0,7 C 47 % 91 % 1020,9 hPa 0,0 l/m 6,9 km/h (2 Bft) N 0,00 h 0,0 UV-I 0 W/m -2,0 C -2,0 C 12,3 km/h (3 Bft)
28.11.2016 01:00 23,9 C -1,0 C 48 % 88 % 1021,3 hPa 0,0 l/m 4,9 km/h (1 Bft) N-NW 0,00 h 0,0 UV-I 0 W/m -2,7 C -1,6 C 8,2 km/h (2 Bft)
28.11.2016 02:00 23,7 C -1,6 C 49 % 89 % 1021,9 hPa 0,0 l/m 7,9 km/h (2 Bft) N 0,00 h 0,0 UV-I 0 W/m -3,1 C -3,7 C 12,1 km/h (2 Bft)
28.11.2016 03:00 23,6 C -2,0 C 49 % 89 % 1022,2 hPa 0,0 l/m 3,1 km/h (1 Bft) N-NW 0,00 h 0,0 UV-I 0 W/m -3,6 C -2,2 C 4,7 km/h (1 Bft)
28.11.2016 04:00 23,6 C -2,1 C 50 % 91 % 1022,4 hPa 0,0 l/m 0,6 km/h (0 Bft) N-NW 0,00 h 0,0 UV-I 0 W/m -3,3 C -2,1 C 1,4 km/h (1 Bft)
28.11.2016 05:00 23,6 C -1,7 C 50 % 92 % 1022,9 hPa 0,0 l/m 3,1 km/h (1 Bft) N-NW 0,00 h 0,0 UV-I 0 W/m -2,9 C -1,7 C 5,8 km/h (2 Bft)
28.11.2016 06:00 23,6 C -1,3 C 51 % 90 % 1023,7 hPa 0,0 l/m 2,5 km/h (1 Bft) N-NW 0,00 h 0,0 UV-I 0 W/m -2,8 C -1,4 C 5,2 km/h (1 Bft)
28.11.2016 07:00 23,7 C -1,9 C 51 % 89 % 1024,5 hPa 0,0 l/m 2,7 km/h (1 Bft) N-NW 0,00 h 0,0 UV-I 7 W/m -3,5 C -1,9 C 4,7 km/h (1 Bft)
28.11.2016 08:00 24,1 C -1,9 C 51 % 90 % 1025,4 hPa 0,0 l/m 2,3 km/h (1 Bft) NW 0,00 h 0,0 UV-I 61 W/m -3,3 C -1,9 C 4,9 km/h (1 Bft)
28.11.2016 09:00 24,0 C -0,3 C 48 % 80 % 1026,1 hPa 0,0 l/m 7,2 km/h (2 Bft) N 0,38 h 0,6 UV-I 126 W/m -3,2 C -2,2 C 11,6 km/h (2 Bft)
28.11.2016 10:00 24,0 C 0,6 C 47 % 71 % 1026,9 hPa 0,0 l/m 10,4 km/h (2 Bft) N 0,73 h 0,7 UV-I 250 W/m -4,0 C -3,1 C 15,9 km/h (3 Bft)
28.11.2016 11:00 23,8 C 0,1 C 43 % 70 % 1027,4 hPa 0,0 l/m 9,7 km/h (2 Bft) N-NO 0,28 h 0,7 UV-I 138 W/m -4,6 C -2,9 C 15,4 km/h (3 Bft)
28.11.2016 12:00 23,9 C 0,2 C 41 % 70 % 1027,7 hPa 0,0 l/m 8,2 km/h (2 Bft) N-NO 0,17 h 0,8 UV-I 122 W/m -4,6 C -2,0 C 12,8 km/h (3 Bft)
28.11.2016 13:00 24,0 C -0,1 C 39 % 72 % 1028,2 hPa 0,0 l/m 9,3 km/h (2 Bft) N 0,00 h 0,5 UV-I 74 W/m -4,5 C -3,0 C 14,2 km/h (3 Bft)
28.11.2016 14:00 23,9 C -0,1 C 39 % 72 % 1028,7 hPa 0,0 l/m 8,3 km/h (2 Bft) N-NO 0,00 h 0,0 UV-I 70 W/m -4,6 C -2,3 C 13,7 km/h (3 Bft)
28.11.2016 15:00 23,8 C -0,4 C 38 % 71 % 1029,3 hPa 0,0 l/m 8,1 km/h (2 Bft) N-NO 0,00 h 0,0 UV-I 23 W/m -4,9 C -2,2 C 12,2 km/h (2 Bft)
28.11.2016 16:00 23,9 C -1,4 C 37 % 76 % 1030,0 hPa 0,0 l/m 2,5 km/h (1 Bft) N-NO 0,00 h 0,0 UV-I 6 W/m -5,1 C -1,5 C 4,6 km/h (1 Bft)
28.11.2016 17:00 23,9 C -2,3 C 37 % 78 % 1030,7 hPa 0,0 l/m 2,0 km/h (1 Bft) N 0,00 h 0,0 UV-I 0 W/m -5,6 C -2,3 C 3,7 km/h (1 Bft)
28.11.2016 18:00 24,0 C -3,3 C 37 % 81 % 1031,5 hPa 0,0 l/m 0,2 km/h (0 Bft) N 0,00 h 0,0 UV-I 0 W/m -6,0 C -3,3 C 0,6 km/h (0 Bft)
28.11.2016 19:00 24,2 C -4,1 C 39 % 84 % 1032,1 hPa 0,0 l/m 1,1 km/h (1 Bft) N 0,00 h 0,0 UV-I 0 W/m -6,3 C -4,1 C 1,8 km/h (1 Bft)
28.11.2016 20:00 24,1 C -4,6 C 38 % 86 % 1032,6 hPa 0,0 l/m 1,6 km/h (1 Bft) N-NW 0,00 h 0,0 UV-I 0 W/m -6,6 C -4,6 C 2,7 km/h (1 Bft)
28.11.2016 21:00 24,3 C -5,3 C 39 % 88 % 1033,1 hPa 0,0 l/m 0,4 km/h (0 Bft) NO 0,00 h 0,0 UV-I 0 W/m -7,0 C -5,3 C 0,9 km/h (0 Bft)
28.11.2016 22:00 24,6 C -6,0 C 40 % 89 % 1033,3 hPa 0,0 l/m 1,1 km/h (1 Bft) O-NO 0,00 h 0,0 UV-I 0 W/m -7,4 C -6,0 C 2,2 km/h (1 Bft)
28.11.2016 23:00 24,3 C -6,5 C 39 % 90 % 1033,6 hPa 0,0 l/m 0,3 km/h (0 Bft) O-NO 0,00 h 0,0 UV-I 0 W/m -7,9 C -6,5 C 0,8 km/h (0 Bft)
29.11.2016 00:00 24,0 C -7,0 C 41 % 90 % 1033,9 hPa 0,0 l/m 0,3 km/h (0 Bft) O-SO 0,00 h 0,0 UV-I 0 W/m -8,3 C -7,0 C 0,7 km/h (0 Bft)
29.11.2016 01:00 23,8 C -7,4 C 42 % 90 % 1034,1 hPa 0,0 l/m 0,0 km/h (0 Bft) N 0,00 h 0,0 UV-I 0 W/m -8,8 C -7,4 C 0,1 km/h (0 Bft)
29.11.2016 02:00 23,6 C -7,8 C 42 % 91 % 1034,1 hPa 0,0 l/m 0,0 km/h (0 Bft) N 0,00 h 0,0 UV-I 0 W/m -9,1 C -7,8 C 0,0 km/h (0 Bft)
29.11.2016 03:00 23,5 C -8,0 C 43 % 91 % 1034,1 hPa 0,0 l/m 0,1 km/h (0 Bft) N-NO 0,00 h 0,0 UV-I 0 W/m -9,2 C -8,0 C 0,3 km/h (0 Bft)
29.11.2016 04:00 23,4 C -8,3 C 44 % 91 % 1034,6 hPa 0,0 l/m 0,1 km/h (0 Bft) NO 0,00 h 0,0 UV-I 0 W/m -9,5 C -8,3 C 0,3 km/h (0 Bft)
29.11.2016 05:00 23,3 C -8,6 C 44 % 91 % 1034,8 hPa 0,0 l/m 0,0 km/h (0 Bft) N 0,00 h 0,0 UV-I 0 W/m -9,8 C -8,6 C 0,0 km/h (0 Bft)
29.11.2016 06:00 23,2 C -8,8 C 44 % 91 % 1035,3 hPa 0,0 l/m 0,0 km/h (0 Bft) N 0,00 h 0,0 UV-I 0 W/m -10,0 C -8,8 C 0,0 km/h (0 Bft)
29.11.2016 07:00 23,2 C -8,9 C 44 % 91 % 1035,6 hPa 0,0 l/m 0,0 km/h (0 Bft) N 0,00 h 0,0 UV-I 7 W/m -10,1 C -8,9 C 0,0 km/h (0 Bft)
29.11.2016 08:00 23,6 C -7,7 C 46 % 93 % 1036,2 hPa 0,0 l/m 0,0 km/h (0 Bft) N 0,00 h 0,0 UV-I 50 W/m -8,6 C -7,7 C 0,0 km/h (0 Bft)
29.11.2016 09:00 23,9 C -4,1 C 45 % 91 % 1036,4 hPa 0,0 l/m 0,0 km/h (0 Bft) N 0,52 h 0,5 UV-I 156 W/m -5,4 C -4,1 C 0,0 km/h (0 Bft)
29.11.2016 10:00 23,8 C -2,3 C 41 % 86 % 1036,6 hPa 0,0 l/m 0,0 km/h (0 Bft) N 1,00 h 0,8 UV-I 255 W/m -4,3 C -2,3 C 0,0 km/h (0 Bft)
29.11.2016 11:00 24,0 C -0,4 C 38 % 78 % 1036,3 hPa 0,0 l/m 0,0 km/h (0 Bft) N 1,00 h 1,0 UV-I 306 W/m -3,7 C -0,4 C 0,0 km/h (0 Bft)
29.11.2016 12:00 23,9 C 0,7 C 35 % 70 % 1036,0 hPa 0,0 l/m 0,0 km/h (0 Bft) N 1,00 h 1,0 UV-I 307 W/m -4,1 C 0,7 C 0,0 km/h (0 Bft)
29.11.2016 13:00 23,8 C 1,3 C 34 % 64 % 1035,7 hPa 0,0 l/m 0,0 km/h (0 Bft) N 0,98 h 0,8 UV-I 244 W/m -4,9 C 1,3 C 0,0 km/h (0 Bft)
29.11.2016 14:00 23,9 C 1,3 C 33 % 64 % 1035,4 hPa 0,0 l/m 0,0 km/h (0 Bft) N 0,10 h 0,5 UV-I 119 W/m -4,8 C 1,3 C 0,0 km/h (0 Bft)
29.11.2016 15:00 23,9 C 0,8 C 33 % 63 % 1035,3 hPa 0,0 l/m 0,0 km/h (0 Bft) N 0,00 h 0,0 UV-I 43 W/m -5,3 C 0,8 C 0,0 km/h (0 Bft)
29.11.2016 16:00 23,9 C -0,3 C 35 % 69 % 1035,2 hPa 0,0 l/m 0,0 km/h (0 Bft) N 0,00 h 0,0 UV-I 8 W/m -5,3 C -0,3 C 0,0 km/h (0 Bft)
29.11.2016 17:00 24,1 C -1,9 C 37 % 75 % 1035,5 hPa 0,0 l/m 0,0 km/h (0 Bft) N 0,00 h 0,0 UV-I 0 W/m -5,7 C -1,9 C 0,0 km/h (0 Bft)
29.11.2016 18:00 24,2 C -3,3 C 38 % 80 % 1035,6 hPa 0,0 l/m 0,0 km/h (0 Bft) N 0,00 h 0,0 UV-I 0 W/m -6,2 C -3,3 C 0,0 km/h (0 Bft)
29.11.2016 19:00 24,2 C -4,3 C 39 % 83 % 1035,7 hPa 0,0 l/m 0,0 km/h (0 Bft) N 0,00 h 0,0 UV-I 0 W/m -6,7 C -4,3 C 0,0 km/h (0 Bft)
29.11.2016 20:00 24,2 C -5,3 C 39 % 85 % 1035,9 hPa 0,0 l/m 0,0 km/h (0 Bft) N 0,00 h 0,0 UV-I 0 W/m -7,4 C -5,3 C 0,0 km/h (0 Bft)
29.11.2016 21:00 24,3 C -6,0 C 41 % 87 % 1035,9 hPa 0,0 l/m 0,0 km/h (0 Bft) N 0,00 h 0,0 UV-I 0 W/m -7,9 C -6,0 C 0,0 km/h (0 Bft)
29.11.2016 22:00 24,3 C -6,7 C 40 % 88 % 1036,0 hPa 0,0 l/m 0,0 km/h (0 Bft) N 0,00 h 0,0 UV-I 0 W/m -8,4 C -6,7 C 0,0 km/h (0 Bft)
29.11.2016 23:00 24,1 C -7,3 C 40 % 89 % 1035,8 hPa 0,0 l/m 0,0 km/h (0 Bft) N 0,00 h 0,0 UV-I 0 W/m -8,8 C -7,3 C 0,0 km/h (0 Bft)
30.11.2016 00:00 23,8 C -7,7 C 41 % 90 % 1035,4 hPa 0,0 l/m 0,0 km/h (0 Bft) N 0,00 h 0,0 UV-I 0 W/m -9,1 C -7,7 C 0,0 km/h (0 Bft)
30.11.2016 01:00 23,6 C -8,0 C 42 % 90 % 1035,1 hPa 0,0 l/m 0,0 km/h (0 Bft) N 0,00 h 0,0 UV-I 0 W/m -9,3 C -8,0 C 0,0 km/h (0 Bft)
30.11.2016 02:00 23,4 C -8,0 C 43 % 91 % 1035,3 hPa 0,0 l/m 0,0 km/h (0 Bft) N 0,00 h 0,0 UV-I 0 W/m -9,2 C -8,0 C 0,0 km/h (0 Bft)
30.11.2016 03:00 23,3 C -8,4 C 43 % 91 % 1035,3 hPa 0,0 l/m 0,0 km/h (0 Bft) N 0,00 h 0,0 UV-I 0 W/m -9,6 C -8,4 C 0,0 km/h (0 Bft)
30.11.2016 04:00 23,3 C -7,9 C 43 % 92 % 1034,7 hPa 0,0 l/m 0,0 km/h (0 Bft) N 0,00 h 0,0 UV-I 0 W/m -8,9 C -7,9 C 0,0 km/h (0 Bft)
30.11.2016 05:00 23,2 C -7,7 C 44 % 92 % 1034,5 hPa 0,0 l/m 0,0 km/h (0 Bft) N 0,00 h 0,0 UV-I 0 W/m -8,7 C -7,7 C 0,0 km/h (0 Bft)
30.11.2016 06:00 23,1 C -7,8 C 44 % 92 % 1034,4 hPa 0,0 l/m 0,0 km/h (0 Bft) N 0,00 h 0,0 UV-I 0 W/m -8,8 C -7,8 C 0,0 km/h (0 Bft)
30.11.2016 07:00 23,2 C -6,8 C 45 % 93 % 1034,3 hPa 0,0 l/m 0,0 km/h (0 Bft) N 0,00 h 0,0 UV-I 5 W/m -7,7 C -6,8 C 0,0 km/h (0 Bft)
30.11.2016 08:00 23,3 C -6,0 C 45 % 93 % 1034,4 hPa 0,0 l/m 0,0 km/h (0 Bft) N 0,00 h 0,0 UV-I 21 W/m -6,9 C -6,0 C 0,0 km/h (0 Bft)
30.11.2016 09:00 23,5 C -4,7 C 45 % 93 % 1034,3 hPa 0,0 l/m 1,0 km/h (0 Bft) S 0,00 h 0,5 UV-I 83 W/m -5,6 C -4,7 C 2,2 km/h (1 Bft)
30.11.2016 10:00 23,5 C -2,7 C 45 % 87 % 1033,9 hPa 0,0 l/m 6,6 km/h (2 Bft) S 0,50 h 0,7 UV-I 160 W/m -4,6 C -4,2 C 10,8 km/h (2 Bft)
30.11.2016 11:00 23,7 C -1,9 C 45 % 83 % 1033,4 hPa 0,0 l/m 4,0 km/h (1 Bft) S 1,00 h 0,9 UV-I 217 W/m -4,3 C -2,3 C 7,5 km/h (2 Bft)
30.11.2016 12:00 23,9 C -0,7 C 46 % 79 % 1032,5 hPa 0,0 l/m 2,3 km/h (1 Bft) S 1,00 h 0,9 UV-I 225 W/m -3,9 C -0,8 C 5,1 km/h (1 Bft)
30.11.2016 13:00 24,3 C -0,4 C 46 % 78 % 1032,0 hPa 0,0 l/m 3,7 km/h (1 Bft) S 0,57 h 0,7 UV-I 169 W/m -3,7 C -0,5 C 7,3 km/h (2 Bft)
30.11.2016 14:00 24,1 C -0,4 C 44 % 79 % 1031,5 hPa 0,0 l/m 3,1 km/h (1 Bft) S 0,00 h 0,5 UV-I 87 W/m -3,6 C -0,4 C 6,4 km/h (2 Bft)
30.11.2016 15:00 24,0 C -0,5 C 45 % 80 % 1031,0 hPa 0,0 l/m 1,9 km/h (1 Bft) S 0,00 h 0,0 UV-I 32 W/m -3,5 C -0,5 C 4,4 km/h (1 Bft)
30.11.2016 16:00 24,2 C -0,7 C 45 % 77 % 1030,9 hPa 0,0 l/m 6,3 km/h (2 Bft) W-SW 0,00 h 0,0 UV-I 6 W/m -4,2 C -2,4 C 10,7 km/h (2 Bft)
30.11.2016 17:00 24,3 C -0,7 C 45 % 73 % 1030,6 hPa 0,0 l/m 13,3 km/h (3 Bft) W-SW 0,00 h 0,0 UV-I 0 W/m -5,0 C -6,6 C 20,9 km/h (4 Bft)
30.11.2016 18:00 24,3 C -0,8 C 45 % 75 % 1030,4 hPa 0,0 l/m 10,6 km/h (2 Bft) W-SW 0,00 h 0,0 UV-I 0 W/m -4,6 C -4,8 C 16,9 km/h (3 Bft)
30.11.2016 19:00 24,2 C -0,8 C 47 % 76 % 1030,4 hPa 0,0 l/m 10,3 km/h (2 Bft) W-SW 0,00 h 0,0 UV-I 0 W/m -4,5 C -4,5 C 16,0 km/h (3 Bft)
30.11.2016 20:00 24,0 C -0,6 C 47 % 75 % 1030,1 hPa 0,0 l/m 7,2 km/h (2 Bft) W-SW 0,00 h 0,0 UV-I 0 W/m -4,5 C -2,1 C 12,2 km/h (2 Bft)
30.11.2016 21:00 24,0 C -0,5 C 46 % 73 % 1030,1 hPa 0,0 l/m 6,6 km/h (2 Bft) SW 0,00 h 0,0 UV-I 0 W/m -4,7 C -1,6 C 11,1 km/h (2 Bft)
30.11.2016 22:00 24,0 C -0,3 C 45 % 71 % 1029,7 hPa 0,0 l/m 8,8 km/h (2 Bft) W-SW 0,00 h 0,0 UV-I 0 W/m -4,9 C -2,7 C 14,3 km/h (3 Bft)
30.11.2016 23:00 24,0 C -0,2 C 44 % 71 % 1029,6 hPa 0,0 l/m 10,1 km/h (2 Bft) W-SW 0,00 h 0,0 UV-I 0 W/m -4,8 C -3,6 C 16,3 km/h (3 Bft)
01.12.2016 00:00 23,5 C -0,3 C 44 % 75 % 1029,4 hPa 0,0 l/m 9,0 km/h (2 Bft) W-SW 0,00 h 0,0 UV-I 0 W/m -4,2 C -3,0 C 14,6 km/h (3 Bft)
01.12.2016 01:00 23,4 C -0,2 C 44 % 77 % 1029,1 hPa 0,0 l/m 9,1 km/h (2 Bft) W-SW 0,00 h 0,0 UV-I 0 W/m -3,7 C -3,1 C 14,8 km/h (3 Bft)
01.12.2016 02:00 23,3 C 0,0 C 45 % 77 % 1028,9 hPa 0,0 l/m 10,1 km/h (2 Bft) W-SW 0,00 h 0,0 UV-I 0 W/m -3,5 C -3,3 C 16,5 km/h (3 Bft)
01.12.2016 03:00 23,2 C 0,1 C 45 % 78 % 1028,4 hPa 0,0 l/m 11,5 km/h (2 Bft) W-SW 0,00 h 0,0 UV-I 0 W/m -3,2 C -4,3 C 18,7 km/h (3 Bft)
01.12.2016 04:00 23,2 C 0,3 C 46 % 79 % 1027,8 hPa 0,0 l/m 12,7 km/h (3 Bft) W-SW 0,00 h 0,0 UV-I 0 W/m -3,0 C -5,0 C 20,1 km/h (4 Bft)
01.12.2016 05:00 23,1 C 0,3 C 46 % 80 % 1027,4 hPa 0,0 l/m 9,5 km/h (2 Bft) W-SW 0,00 h 0,0 UV-I 0 W/m -2,8 C -2,5 C 16,1 km/h (3 Bft)
01.12.2016 06:00 23,0 C 0,5 C 46 % 80 % 1027,0 hPa 0,0 l/m 9,3 km/h (2 Bft) W-SW 0,00 h 0,0 UV-I 0 W/m -2,6 C -2,4 C 15,0 km/h (3 Bft)
01.12.2016 07:00 23,0 C 0,6 C 47 % 80 % 1026,7 hPa 0,0 l/m 8,8 km/h (2 Bft) W-SW 0,00 h 0,0 UV-I 0 W/m -2,5 C -1,8 C 15,5 km/h (3 Bft)
01.12.2016 08:00 23,2 C 0,7 C 47 % 81 % 1026,3 hPa 0,0 l/m 8,6 km/h (2 Bft) W-SW 0,00 h 0,0 UV-I 8 W/m -2,2 C -1,5 C 14,5 km/h (3 Bft)
01.12.2016 09:00 23,3 C 0,9 C 46 % 84 % 1025,6 hPa 0,0 l/m 7,4 km/h (2 Bft) SW 0,00 h 0,0 UV-I 28 W/m -1,4 C -0,8 C 13,7 km/h (3 Bft)
01.12.2016 10:00 22,9 C 1,3 C 42 % 85 % 1025,3 hPa 0,0 l/m 11,4 km/h (2 Bft) W-SW 0,00 h 0,6 UV-I 63 W/m -0,9 C -2,9 C 18,8 km/h (3 Bft)
01.12.2016 11:00 22,4 C 1,5 C 39 % 88 % 1024,7 hPa 0,0 l/m 13,3 km/h (3 Bft) W-SW 0,00 h 0,6 UV-I 86 W/m -0,4 C -3,9 C 21,3 km/h (4 Bft)
01.12.2016 12:00 23,0 C 1,4 C 41 % 89 % 1024,0 hPa 0,0 l/m 10,2 km/h (2 Bft) W-SW 0,00 h 0,5 UV-I 57 W/m -0,2 C -2,0 C 17,6 km/h (3 Bft)
01.12.2016 13:00 23,2 C 1,4 C 41 % 90 % 1023,1 hPa 0,0 l/m 11,5 km/h (2 Bft) W-SW 0,00 h 0,5 UV-I 58 W/m -0,0 C -2,8 C 19,1 km/h (3 Bft)
01.12.2016 14:00 23,3 C 1,6 C 42 % 89 % 1022,6 hPa 0,0 l/m 15,9 km/h (3 Bft) W 0,00 h 0,0 UV-I 40 W/m 0,1 C -5,4 C 24,6 km/h (4 Bft)
01.12.2016 15:00 23,3 C 1,7 C 42 % 90 % 1022,2 hPa 0,0 l/m 12,8 km/h (3 Bft) W 0,00 h 0,0 UV-I 18 W/m 0,3 C -3,3 C 20,2 km/h (4 Bft)
01.12.2016 16:00 23,4 C 1,9 C 42 % 90 % 1021,7 hPa 0,0 l/m 9,8 km/h (2 Bft) W-SW 0,00 h 0,0 UV-I 0 W/m 0,4 C -1,1 C 16,5 km/h (3 Bft)
01.12.2016 17:00 23,4 C 1,7 C 43 % 91 % 1021,6 hPa 0,0 l/m 7,9 km/h (2 Bft) W-SW 0,00 h 0,0 UV-I 0 W/m 0,5 C 0,0 C 14,2 km/h (3 Bft)
01.12.2016 18:00 23,6 C 1,7 C 44 % 92 % 1021,2 hPa 0,0 l/m 10,3 km/h (2 Bft) W 0,00 h 0,0 UV-I 0 W/m 0,5 C -1,7 C 16,9 km/h (3 Bft)
01.12.2016 19:00 23,7 C 1,7 C 45 % 93 % 1020,5 hPa 0,0 l/m 10,6 km/h (2 Bft) W 0,00 h 0,0 UV-I 0 W/m 0,7 C -1,8 C 16,8 km/h (3 Bft)
01.12.2016 20:00 23,6 C 1,7 C 45 % 92 % 1020,0 hPa 0,0 l/m 14,0 km/h (3 Bft) W 0,00 h 0,0 UV-I 0 W/m 0,6 C -4,2 C 21,6 km/h (4 Bft)
01.12.2016 21:00 23,6 C 1,7 C 45 % 93 % 1019,4 hPa 0,0 l/m 16,9 km/h (3 Bft) W 0,00 h 0,0 UV-I 0 W/m 0,8 C -5,8 C 26,0 km/h (4 Bft)
01.12.2016 22:00 23,7 C 1,8 C 45 % 94 % 1018,9 hPa 0,0 l/m 14,9 km/h (3 Bft) W 0,00 h 0,0 UV-I 0 W/m 0,9 C -4,6 C 23,5 km/h (4 Bft)
01.12.2016 23:00 23,6 C 1,8 C 44 % 94 % 1018,4 hPa 0,0 l/m 14,5 km/h (3 Bft) W 0,00 h 0,0 UV-I 0 W/m 1,0 C -4,4 C 22,1 km/h (4 Bft)
02.12.2016 00:00 23,2 C 1,9 C 44 % 94 % 1017,9 hPa 0,0 l/m 15,1 km/h (3 Bft) W 0,00 h 0,0 UV-I 0 W/m 1,0 C -4,7 C 22,4 km/h (4 Bft)
02.12.2016 01:00 23,1 C 2,0 C 44 % 94 % 1017,3 hPa 0,0 l/m 15,8 km/h (3 Bft) W 0,00 h 0,0 UV-I 0 W/m 1,2 C -5,0 C 24,0 km/h (4 Bft)
02.12.2016 02:00 23,0 C 2,1 C 44 % 95 % 1017,2 hPa 0,0 l/m 14,5 km/h (3 Bft) W-SW 0,00 h 0,0 UV-I 0 W/m 1,3 C -4,0 C 22,5 km/h (4 Bft)
02.12.2016 03:00 22,9 C 2,3 C 45 % 94 % 1016,6 hPa 0,0 l/m 15,5 km/h (3 Bft) W 0,00 h 0,0 UV-I 0 W/m 1,4 C -4,4 C 23,5 km/h (4 Bft)
02.12.2016 04:00 22,8 C 2,6 C 45 % 94 % 1016,4 hPa 0,0 l/m 14,2 km/h (3 Bft) W 0,00 h 0,0 UV-I 0 W/m 1,8 C -3,2 C 20,7 km/h (4 Bft)
02.12.2016 05:00 22,8 C 2,9 C 45 % 94 % 1016,3 hPa 0,0 l/m 9,9 km/h (2 Bft) W 0,00 h 0,0 UV-I 0 W/m 2,0 C -0,1 C 15,9 km/h (3 Bft)
02.12.2016 06:00 22,7 C 3,1 C 46 % 94 % 1016,1 hPa 0,0 l/m 10,0 km/h (2 Bft) W 0,00 h 0,0 UV-I 0 W/m 2,3 C 0,1 C 15,9 km/h (3 Bft)
02.12.2016 07:00 22,7 C 3,2 C 46 % 94 % 1016,1 hPa 0,0 l/m 10,6 km/h (2 Bft) W 0,00 h 0,0 UV-I 0 W/m 2,4 C -0,2 C 16,8 km/h (3 Bft)
02.12.2016 08:00 22,8 C 3,4 C 46 % 94 % 1016,7 hPa 0,2 l/m 8,3 km/h (2 Bft) W 0,00 h 0,0 UV-I 9 W/m 2,5 C 1,5 C 13,7 km/h (3 Bft)
02.12.2016 09:00 23,1 C 3,6 C 47 % 95 % 1018,0 hPa 0,8 l/m 11,2 km/h (2 Bft) NW 0,00 h 0,0 UV-I 16 W/m 2,8 C -0,2 C 18,0 km/h (3 Bft)
02.12.2016 13:00 23,5 C 4,1 C 46 % 80 % 1020,7 hPa 0,0 l/m 0,5 km/h (0 Bft) N-NW 0,43 h 0,6 UV-I 231 W/m 1,0 C 4,1 C 1,3 km/h (1 Bft)
02.12.2016 14:00 23,6 C 4,3 C 46 % 77 % 1021,0 hPa 0,0 l/m 4,3 km/h (1 Bft) N 0,33 h 0,5 UV-I 138 W/m 0,7 C 4,1 C 7,3 km/h (2 Bft)
02.12.2016 15:00 23,6 C 3,1 C 46 % 77 % 1021,3 hPa 0,0 l/m 1,9 km/h (1 Bft) N 0,00 h 0,0 UV-I 28 W/m -0,5 C 3,0 C 3,7 km/h (1 Bft)
02.12.2016 16:00 23,7 C 2,0 C 46 % 80 % 1021,8 hPa 0,0 l/m 0,0 km/h (0 Bft) N 0,00 h 0,0 UV-I 7 W/m -1,1 C 2,0 C 0,0 km/h (0 Bft)
02.12.2016 17:00 23,8 C 0,1 C 46 % 85 % 1022,2 hPa 0,0 l/m 1,1 km/h (1 Bft) NW 0,00 h 0,0 UV-I 0 W/m -2,1 C 0,1 C 2,4 km/h (1 Bft)
02.12.2016 18:00 23,9 C -1,1 C 48 % 88 % 1022,7 hPa 0,0 l/m 0,2 km/h (0 Bft) N 0,00 h 0,0 UV-I 0 W/m -2,8 C -1,1 C 0,6 km/h (0 Bft)
02.12.2016 19:00 23,9 C -1,9 C 50 % 90 % 1023,1 hPa 0,0 l/m 0,0 km/h (0 Bft) N 0,00 h 0,0 UV-I 0 W/m -3,4 C -1,9 C 0,0 km/h (0 Bft)
02.12.2016 20:00 23,8 C -2,7 C 50 % 91 % 1023,3 hPa 0,0 l/m 0,0 km/h (0 Bft) N-NO 0,00 h 0,0 UV-I 0 W/m -4,0 C -2,7 C 0,1 km/h (0 Bft)
02.12.2016 21:00 24,0 C -3,5 C 50 % 91 % 1023,4 hPa 0,0 l/m 0,0 km/h (0 Bft) N 0,00 h 0,0 UV-I 0 W/m -4,8 C -3,5 C 0,0 km/h (0 Bft)
02.12.2016 22:00 24,1 C -4,1 C 48 % 91 % 1023,4 hPa 0,0 l/m 0,0 km/h (0 Bft) N 0,00 h 0,0 UV-I 0 W/m -5,4 C -4,1 C 0,0 km/h (0 Bft)
02.12.2016 23:00 24,1 C -4,6 C 47 % 92 % 1023,8 hPa 0,0 l/m 0,0 km/h (0 Bft) N 0,00 h 0,0 UV-I 0 W/m -5,8 C -4,6 C 0,0 km/h (0 Bft)
03.12.2016 00:00 23,7 C -5,3 C 47 % 92 % 1023,9 hPa 0,0 l/m 0,0 km/h (0 Bft) N 0,00 h 0,0 UV-I 0 W/m -6,4 C -5,3 C 0,0 km/h (0 Bft)
03.12.2016 01:00 23,5 C -5,6 C 48 % 92 % 1024,1 hPa 0,0 l/m 0,1 km/h (0 Bft) SO 0,00 h 0,0 UV-I 0 W/m -6,7 C -5,6 C 0,2 km/h (0 Bft)
03.12.2016 02:00 23,3 C -5,9 C 48 % 92 % 1024,3 hPa 0,0 l/m 0,0 km/h (0 Bft) N 0,00 h 0,0 UV-I 0 W/m -6,9 C -5,9 C 0,0 km/h (0 Bft)
03.12.2016 03:00 23,2 C -6,5 C 49 % 92 % 1024,4 hPa 0,0 l/m 0,0 km/h (0 Bft) N 0,00 h 0,0 UV-I 0 W/m -7,5 C -6,5 C 0,0 km/h (0 Bft)
03.12.2016 04:00 23,2 C -6,9 C 49 % 92 % 1024,5 hPa 0,0 l/m 0,0 km/h (0 Bft) N 0,00 h 0,0 UV-I 0 W/m -8,0 C -6,9 C 0,0 km/h (0 Bft)
03.12.2016 05:00 23,1 C -7,3 C 49 % 92 % 1024,7 hPa 0,0 l/m 0,0 km/h (0 Bft) N 0,00 h 0,0 UV-I 0 W/m -8,4 C -7,3 C 0,0 km/h (0 Bft)
03.12.2016 06:00 23,0 C -7,6 C 49 % 92 % 1025,1 hPa 0,0 l/m 0,0 km/h (0 Bft) N 0,00 h 0,0 UV-I 0 W/m -8,7 C -7,6 C 0,0 km/h (0 Bft)
03.12.2016 07:00 22,9 C -8,0 C 49 % 92 % 1025,6 hPa 0,0 l/m 0,0 km/h (0 Bft) N 0,00 h 0,0 UV-I 5 W/m -9,0 C -8,0 C 0,0 km/h (0 Bft)
03.12.2016 08:00 23,1 C -7,4 C 51 % 93 % 1026,1 hPa 0,0 l/m 0,0 km/h (0 Bft) N 0,00 h 0,0 UV-I 48 W/m -8,3 C -7,4 C 0,0 km/h (0 Bft)
03.12.2016 09:00 23,4 C -4,4 C 53 % 93 % 1026,6 hPa 0,0 l/m 0,0 km/h (0 Bft) N 0,38 h 0,5 UV-I 145 W/m -5,4 C -4,4 C 0,0 km/h (0 Bft)
03.12.2016 10:00 23,6 C -1,3 C 53 % 90 % 1026,8 hPa 0,0 l/m 0,0 km/h (0 Bft) N 1,00 h 0,7 UV-I 248 W/m -2,8 C -1,3 C 0,0 km/h (0 Bft)
03.12.2016 11:00 23,5 C 1,0 C 49 % 85 % 1026,8 hPa 0,0 l/m 0,0 km/h (0 Bft) N 1,00 h 0,9 UV-I 300 W/m -1,3 C 1,0 C 0,0 km/h (0 Bft)
03.12.2016 12:00 23,3 C 2,7 C 45 % 77 % 1026,8 hPa 0,0 l/m 0,0 km/h (0 Bft) N 1,00 h 0,9 UV-I 299 W/m -1,0 C 2,7 C 0,0 km/h (0 Bft)
03.12.2016 13:00 23,5 C 3,1 C 46 % 71 % 1026,6 hPa 0,0 l/m 0,0 km/h (0 Bft) N 0,97 h 0,7 UV-I 235 W/m -1,6 C 3,1 C 0,1 km/h (0 Bft)
03.12.2016 14:00 23,6 C 2,7 C 43 % 64 % 1026,5 hPa 0,0 l/m 0,8 km/h (0 Bft) O-SO 0,08 h 0,5 UV-I 111 W/m -3,3 C 2,7 C 2,4 km/h (1 Bft)
03.12.2016 15:00 23,2 C 2,0 C 40 % 66 % 1026,7 hPa 0,0 l/m 0,3 km/h (0 Bft) O-SO 0,00 h 0,0 UV-I 41 W/m -3,6 C 2,0 C 1,1 km/h (0 Bft)
03.12.2016 16:00 23,5 C 0,8 C 43 % 73 % 1026,9 hPa 0,0 l/m 0,0 km/h (0 Bft) N 0,00 h 0,0 UV-I 7 W/m -3,5 C 0,8 C 0,0 km/h (0 Bft)
03.12.2016 17:00 23,8 C -0,9 C 43 % 78 % 1027,3 hPa 0,0 l/m 0,0 km/h (0 Bft) N 0,00 h 0,0 UV-I 0 W/m -4,3 C -0,9 C 0,0 km/h (0 Bft)
03.12.2016 18:00 24,1 C -2,5 C 44 % 83 % 1027,8 hPa 0,0 l/m 0,1 km/h (0 Bft) NO 0,00 h 0,0 UV-I 0 W/m -5,0 C -2,5 C 0,5 km/h (0 Bft)
03.12.2016 19:00 24,1 C -3,4 C 45 % 85 % 1028,1 hPa 0,0 l/m 0,6 km/h (0 Bft) O-NO 0,00 h 0,0 UV-I 0 W/m -5,4 C -3,4 C 1,9 km/h (1 Bft)
03.12.2016 20:00 23,8 C -4,1 C 45 % 86 % 1028,2 hPa 0,0 l/m 0,5 km/h (0 Bft) O-NO 0,00 h 0,0 UV-I 0 W/m -6,1 C -4,1 C 1,5 km/h (1 Bft)
03.12.2016 21:00 23,9 C -5,0 C 46 % 87 % 1028,7 hPa 0,0 l/m 0,0 km/h (0 Bft) N 0,00 h 0,0 UV-I 0 W/m -6,8 C -5,0 C 0,0 km/h (0 Bft)
03.12.2016 22:00 24,1 C -5,9 C 45 % 88 % 1028,8 hPa 0,0 l/m 0,2 km/h (0 Bft) NO 0,00 h 0,0 UV-I 0 W/m -7,5 C -5,9 C 0,2 km/h (0 Bft)
03.12.2016 23:00 23,7 C -6,5 C 45 % 89 % 1029,0 hPa 0,0 l/m 0,4 km/h (0 Bft) NO 0,00 h 0,0 UV-I 0 W/m -8,0 C -6,5 C 1,0 km/h (0 Bft)
04.12.2016 00:00 23,4 C -7,2 C 46 % 90 % 1029,0 hPa 0,0 l/m 0,6 km/h (0 Bft) O-NO 0,00 h 0,0 UV-I 0 W/m -8,7 C -7,2 C 1,5 km/h (1 Bft)
04.12.2016 01:00 23,3 C -7,6 C 46 % 90 % 1029,3 hPa 0,0 l/m 0,2 km/h (0 Bft) SO 0,00 h 0,0 UV-I 0 W/m -8,9 C -7,6 C 0,3 km/h (0 Bft)
04.12.2016 02:00 23,1 C -7,7 C 46 % 91 % 1029,5 hPa 0,0 l/m 0,2 km/h (0 Bft) SO 0,00 h 0,0 UV-I 0 W/m -8,9 C -7,7 C 0,4 km/h (0 Bft)
04.12.2016 03:00 23,0 C -8,1 C 47 % 91 % 1029,4 hPa 0,0 l/m 0,0 km/h (0 Bft) N 0,00 h 0,0 UV-I 0 W/m -9,3 C -8,1 C 0,0 km/h (0 Bft)
04.12.2016 04:00 22,9 C -8,4 C 47 % 91 % 1029,5 hPa 0,0 l/m 1,0 km/h (0 Bft) W-NW 0,00 h 0,0 UV-I 0 W/m -9,5 C -8,4 C 1,7 km/h (1 Bft)
04.12.2016 05:00 22,9 C -8,3 C 47 % 92 % 1029,5 hPa 0,0 l/m 0,7 km/h (0 Bft) W-NW 0,00 h 0,0 UV-I 0 W/m -9,4 C -8,3 C 1,3 km/h (1 Bft)
04.12.2016 06:00 22,8 C -8,4 C 47 % 92 % 1029,7 hPa 0,0 l/m 1,0 km/h (0 Bft) W-NW 0,00 h 0,0 UV-I 0 W/m -9,5 C -8,4 C 2,1 km/h (1 Bft)
04.12.2016 07:00 22,8 C -8,4 C 48 % 92 % 1030,1 hPa 0,0 l/m 0,9 km/h (0 Bft) NW 0,00 h 0,0 UV-I 0 W/m -9,4 C -8,4 C 1,7 km/h (1 Bft)
04.12.2016 08:00 22,9 C -8,3 C 47 % 92 % 1030,5 hPa 0,0 l/m 0,6 km/h (0 Bft) NW 0,00 h 0,0 UV-I 34 W/m -9,4 C -8,3 C 0,8 km/h (0 Bft)
04.12.2016 09:00 23,3 C -5,5 C 48 % 92 % 1030,9 hPa 0,0 l/m 0,0 km/h (0 Bft) N 0,13 h 0,5 UV-I 121 W/m -6,6 C -5,5 C 0,1 km/h (0 Bft)
04.12.2016 10:00 23,3 C -1,9 C 47 % 90 % 1031,1 hPa 0,0 l/m 0,1 km/h (0 Bft) NO 0,90 h 0,7 UV-I 206 W/m -3,4 C -1,9 C 0,7 km/h (0 Bft)
04.12.2016 11:00 23,1 C 1,9 C 44 % 78 % 1030,8 hPa 0,0 l/m 3,7 km/h (1 Bft) O-NO 1,00 h 0,9 UV-I 285 W/m -1,6 C 1,7 C 8,9 km/h (2 Bft)
04.12.2016 12:00 23,1 C 2,7 C 44 % 71 % 1030,7 hPa 0,0 l/m 2,8 km/h (1 Bft) O 0,97 h 0,9 UV-I 263 W/m -2,0 C 2,6 C 6,3 km/h (2 Bft)
04.12.2016 13:00 23,1 C 2,9 C 43 % 64 % 1030,5 hPa 0,0 l/m 2,0 km/h (1 Bft) O 0,92 h 0,7 UV-I 222 W/m -3,2 C 2,9 C 5,5 km/h (1 Bft)
04.12.2016 14:00 23,1 C 2,7 C 42 % 64 % 1030,5 hPa 0,0 l/m 1,4 km/h (1 Bft) O 0,12 h 0,5 UV-I 103 W/m -3,4 C 2,7 C 3,8 km/h (1 Bft)
04.12.2016 15:00 23,5 C 1,5 C 42 % 68 % 1030,4 hPa 0,0 l/m 2,5 km/h (1 Bft) O-NO 0,00 h 0,0 UV-I 44 W/m -3,7 C 1,5 C 6,1 km/h (2 Bft)
04.12.2016 16:00 23,6 C 0,5 C 42 % 70 % 1030,6 hPa 0,0 l/m 2,1 km/h (1 Bft) O-NO 0,00 h 0,0 UV-I 9 W/m -4,3 C 0,5 C 4,9 km/h (1 Bft)
04.12.2016 17:00 23,6 C -0,6 C 44 % 77 % 1031,0 hPa 0,0 l/m 3,1 km/h (1 Bft) O-NO 0,00 h 0,0 UV-I 0 W/m -4,2 C -0,6 C 6,5 km/h (2 Bft)
04.12.2016 18:00 23,5 C -1,2 C 43 % 79 % 1031,1 hPa 0,0 l/m 2,6 km/h (1 Bft) O-NO 0,00 h 0,0 UV-I 0 W/m -4,4 C -1,2 C 6,0 km/h (2 Bft)
04.12.2016 19:00 23,7 C -1,8 C 44 % 79 % 1031,4 hPa 0,0 l/m 0,7 km/h (0 Bft) N-NO 0,00 h 0,0 UV-I 0 W/m -5,0 C -1,8 C 2,3 km/h (1 Bft)
04.12.2016 20:00 23,9 C -2,6 C 45 % 83 % 1031,6 hPa 0,0 l/m 2,3 km/h (1 Bft) N-NO 0,00 h 0,0 UV-I 0 W/m -5,0 C -2,6 C 4,9 km/h (1 Bft)
04.12.2016 21:00 24,2 C -2,7 C 46 % 85 % 1031,6 hPa 0,0 l/m 1,9 km/h (1 Bft) NO 0,00 h 0,0 UV-I 0 W/m -4,9 C -2,7 C 4,9 km/h (1 Bft)
04.12.2016 22:00 23,8 C -3,0 C 46 % 85 % 1031,4 hPa 0,0 l/m 1,7 km/h (1 Bft) NO 0,00 h 0,0 UV-I 0 W/m -5,2 C -3,0 C 4,4 km/h (1 Bft)
04.12.2016 23:00 23,6 C -2,8 C 46 % 84 % 1031,4 hPa 0,0 l/m 4,9 km/h (1 Bft) O-NO 0,00 h 0,0 UV-I 0 W/m -5,0 C -3,1 C 8,9 km/h (2 Bft)
Min-Datum _ 01.12.16 29.11.16 29.11.16 29.11.16 02.12.16 - 28.11.16 - - - - 29.11.16 30.11.16 28.11.16
_ Min-Zeit 11:14 07:34 12:48 13:58 06:58 - 01:23 - - - - 07:34 17:13 03:38
Minimum _ 22,0 C -9,0 C 29 % 60 % 1015,9 hPa - 0,0 km/h (0 Bft) - - - - -10,2 C -11,0 C 0,0 km/h (0 Bft)
Max-Datum _ 28.11.16 02.12.16 03.12.16 02.12.16 29.11.16 02.12.16 01.12.16 - 29.11.16 28.11.16 28.11.16 02.12.16 02.12.16 01.12.16
_ Max-Zeit 22:16 13:42 09:37 01:40 10:09 09:06 14:49 - 10:17 12:09 11:24 09:08 13:42 21:22
Maximum _ 24,6 C 4,8 C 54 % 95 % 1036,7 hPa 0,8 l/m 25,7 km/h
W (4 Bft)
- 0,05 h 1,0 UV-I 371 W/m 3,0 C 4,8 C 38,6 km/h
W (5 Bft)
Durchschnitt _ 23,6 C -2,2 C 44 % 85 % 1028,2 hPa #1,0 l/m 3,9 km/h (1 Bft) W-SW #18:28 h 0,7 UV-I 109 W/m -4,5 C -3,3 C 6,5 km/h (2 Bft)